Time;durP1;ratioP1;P1;durP2;ratioP2;P2;SDS_P1;SDS_P2;PMS_P1;PMS_P2;Temp;Humidity;BMP_temperature;BMP_pressure;BME280_temperature;BME280_humidity;BME280_pressure;Samples;Min_cycle;Max_cycle;Signal;HPM_P1;HPM_P2
2022/11/17 00:00:49;;;;;;;37.70;21.25;;;;;;;10.38;82.74;93454.41;4226837;28;20477;-53
2022/11/17 00:02:51;;;;;;;39.10;20.85;;;;;;;10.40;82.56;93462.88;4211854;28;20138;-52
2022/11/17 00:04:52;;;;;;;34.35;22.05;;;;;;;10.44;82.05;93451.84;4226376;28;20485;-51
2022/11/17 00:06:55;;;;;;;38.50;22.05;;;;;;;10.33;81.83;93451.56;4226603;28;20434;-53
2022/11/17 00:08:57;;;;;;;31.92;21.50;;;;;;;10.34;82.35;93455.78;4226515;28;20128;-51
2022/11/17 00:11:02;;;;;;;33.92;21.98;;;;;;;10.38;82.30;93447.34;4225641;28;20439;-53
2022/11/17 00:15:24;;;;;;;35.45;22.27;;;;;;;10.55;81.84;93437.44;4223336;28;20148;-51
2022/11/17 00:17:26;;;;;;;33.92;19.63;;;;;;;10.58;81.68;93418.72;4212295;28;20050;-57
2022/11/17 00:21:48;;;;;;;34.53;20.58;;;;;;;10.13;83.37;93443.47;4226238;28;20090;-53
2022/11/17 00:23:50;;;;;;;31.17;20.45;;;;;;;10.22;83.04;93444.97;4224570;28;20538;-56
2022/11/17 00:25:51;;;;;;;32.80;20.92;;;;;;;10.23;82.83;93429.06;4228579;28;20130;-53
2022/11/17 00:27:53;;;;;;;32.42;20.02;;;;;;;10.31;83.14;93437.84;4229044;27;20144;-55
2022/11/17 00:29:55;;;;;;;34.45;21.30;;;;;;;10.39;82.93;93435.91;4219843;28;20184;-50
2022/11/17 00:34:22;;;;;;;28.33;18.65;;;;;;;10.47;82.26;93442.78;4224680;28;20130;-50
2022/11/17 00:36:24;;;;;;;30.58;20.13;;;;;;;10.55;82.16;93441.88;4228918;28;20051;-50
2022/11/17 00:38:26;;;;;;;32.30;20.27;;;;;;;10.59;81.50;93451.75;4213880;28;20063;-54
2022/11/17 00:40:28;;;;;;;29.33;19.13;;;;;;;10.63;81.38;93441.72;4228790;28;20139;-53
2022/11/17 00:42:29;;;;;;;28.95;19.73;;;;;;;10.69;81.64;93434.91;4229134;28;20508;-50
2022/11/17 00:44:31;;;;;;;31.23;19.33;;;;;;;10.71;81.18;93438.13;4225553;27;20128;-54
2022/11/17 00:46:33;;;;;;;30.38;19.58;;;;;;;10.71;80.91;93438.97;4226548;28;20133;-53
2022/11/17 00:48:35;;;;;;;33.42;20.48;;;;;;;10.41;81.19;93412.97;4216728;28;20449;-56
2022/11/17 00:50:37;;;;;;;30.50;19.25;;;;;;;9.96;83.99;93409.72;4229109;28;20131;-54
2022/11/17 00:52:38;;;;;;;30.25;19.67;;;;;;;10.04;84.10;93414.00;4229024;28;20659;-54
2022/11/17 00:54:40;;;;;;;30.80;19.92;;;;;;;10.14;83.75;93424.97;4228618;28;20215;-52
2022/11/17 00:56:42;;;;;;;28.60;20.25;;;;;;;10.23;83.54;93428.28;4228746;28;20151;-54
2022/11/17 00:58:43;;;;;;;29.45;19.42;;;;;;;10.28;82.80;93420.66;4228824;28;20055;-54
2022/11/17 01:00:48;;;;;;;31.63;20.30;;;;;;;10.10;83.69;93402.78;4228934;28;20507;-50
2022/11/17 01:02:49;;;;;;;32.50;19.80;;;;;;;9.91;84.16;93398.19;4227052;28;20047;-52
2022/11/17 01:04:51;;;;;;;29.95;19.63;;;;;;;9.96;84.32;93408.88;4228808;28;20047;-53
2022/11/17 01:06:53;;;;;;;32.25;18.80;;;;;;;10.07;84.08;93411.03;4228783;28;20443;-52
2022/11/17 01:08:54;;;;;;;33.22;19.90;;;;;;;10.21;83.85;93410.13;4228878;28;20438;-52
2022/11/17 01:11:03;;;;;;;27.35;18.00;;;;;;;10.37;83.51;93403.06;4228112;28;20066;-55
2022/11/17 01:13:05;;;;;;;25.85;16.73;;;;;;;10.47;82.69;93411.38;4228612;28;20055;-50
2022/11/17 01:15:07;;;;;;;24.83;17.02;;;;;;;10.57;81.70;93414.47;4217244;28;20596;-53
2022/11/17 01:17:09;;;;;;;28.33;17.92;;;;;;;10.63;81.44;93405.06;4225010;28;20074;-52
2022/11/17 01:19:12;;;;;;;30.45;19.38;;;;;;;10.70;81.12;93405.91;4226956;28;20082;-52
2022/11/17 01:21:17;;;;;;;25.95;18.27;;;;;;;10.69;80.37;93409.53;4217565;27;20048;-52
2022/11/17 01:23:18;;;;;;;25.73;17.63;;;;;;;10.69;80.58;93414.78;4217639;28;20055;-54
2022/11/17 01:25:20;;;;;;;33.15;20.42;;;;;;;10.72;80.42;93418.81;4223887;28;20087;-54
2022/11/17 01:27:22;;;;;;;30.55;20.20;;;;;;;10.44;81.27;93396.06;4227152;28;20090;-53
2022/11/17 01:29:23;;;;;;;31.50;19.98;;;;;;;10.31;82.36;93381.06;4212151;28;20497;-53
2022/11/17 01:31:27;;;;;;;32.33;20.75;;;;;;;10.37;82.66;93389.97;4211645;28;20084;-51
2022/11/17 01:33:29;;;;;;;34.22;21.13;;;;;;;10.39;82.21;93408.88;4220247;28;20066;-50
2022/11/17 01:35:33;;;;;;;32.95;20.33;;;;;;;10.47;82.40;93400.91;4225621;28;20088;-53
2022/11/17 01:37:35;;;;;;;29.77;20.27;;;;;;;10.45;81.96;93387.19;4216300;28;20496;-50
2022/11/17 01:39:36;;;;;;;31.77;20.23;;;;;;;10.47;81.79;93385.19;4226825;28;20055;-52
2022/11/17 01:41:38;;;;;;;34.78;21.70;;;;;;;10.55;81.89;93381.63;4211820;28;20044;-49
2022/11/17 01:43:51;;;;;;;31.27;20.23;;;;;;;10.61;81.45;93389.53;4227807;28;20074;-53
2022/11/17 01:45:59;;;;;;;31.02;19.10;;;;;;;10.56;81.01;93384.06;4220104;28;20052;-52
2022/11/17 01:48:02;;;;;;;32.38;20.35;;;;;;;10.39;81.39;93391.41;4217948;28;20078;-53
2022/11/17 01:50:27;;;;;;;32.65;21.17;;;;;;;10.43;82.34;93397.03;4227805;28;20107;-51
2022/11/17 01:52:29;;;;;;;33.60;20.77;;;;;;;10.51;82.24;93381.19;4214668;28;20130;-53
2022/11/17 01:54:33;;;;;;;34.05;20.73;;;;;;;10.58;81.99;93376.84;4228008;28;20075;-49
2022/11/17 01:56:38;;;;;;;31.15;20.73;;;;;;;10.65;81.70;93375.06;4225883;28;20075;-53
2022/11/17 01:58:44;;;;;;;35.63;22.23;;;;;;;10.67;81.16;93361.78;4228091;28;20468;-49
2022/11/17 02:00:46;;;;;;;28.15;19.77;;;;;;;10.74;81.50;93374.91;4226565;28;20146;-54
2022/11/17 02:02:48;;;;;;;32.15;20.38;;;;;;;10.77;80.85;93377.13;4226962;28;20079;-51
2022/11/17 02:05:06;;;;;;;30.27;19.75;;;;;;;10.75;80.29;93373.91;4225969;28;20051;-54
2022/11/17 02:07:17;;;;;;;31.13;20.25;;;;;;;10.78;80.25;93366.47;4226108;28;20130;-52
2022/11/17 02:09:19;;;;;;;28.70;19.23;;;;;;;10.81;80.44;93370.50;4226209;28;20048;-53
2022/11/17 02:11:21;;;;;;;28.85;18.83;;;;;;;10.85;80.22;93366.50;4218262;28;20044;-53
2022/11/17 02:13:23;;;;;;;30.75;20.38;;;;;;;10.84;80.19;93359.63;4216470;28;20058;-51
2022/11/17 02:15:26;;;;;;;29.42;19.33;;;;;;;10.85;79.79;93363.88;4227682;28;20127;-53
2022/11/17 02:17:41;;;;;;;23.75;18.05;;;;;;;10.86;79.98;93368.09;4226270;28;20047;-53
2022/11/17 02:19:44;;;;;;;26.30;17.95;;;;;;;10.87;79.57;93361.88;4209899;28;20087;-53
2022/11/17 02:22:07;;;;;;;27.60;19.30;;;;;;;10.82;79.42;93374.75;4222706;28;20129;-50
2022/11/17 02:24:33;;;;;;;30.27;20.00;;;;;;;10.72;79.82;93367.25;4226870;28;20141;-49
2022/11/17 02:26:56;;;;;;;28.48;18.15;;;;;;;10.78;79.87;93360.44;4217643;28;20130;-51
2022/11/17 02:29:15;;;;;;;29.88;19.02;;;;;;;10.81;79.70;93370.50;4224852;28;20441;-50
2022/11/17 02:31:50;;;;;;;28.25;17.85;;;;;;;10.81;79.41;93375.75;4227306;28;20058;-52
2022/11/17 02:33:57;;;;;;;27.63;17.00;;;;;;;10.80;79.19;93369.72;4209931;28;20048;-55
2022/11/17 02:36:16;;;;;;;27.08;17.42;;;;;;;10.80;79.34;93367.09;4212844;28;20132;-54
2022/11/17 02:38:30;;;;;;;30.42;17.05;;;;;;;10.82;79.15;93359.84;4211626;28;20454;-52
2022/11/17 02:40:52;;;;;;;23.73;16.45;;;;;;;10.79;78.81;93346.31;4227298;28;20086;-53
2022/11/17 02:45:28;;;;;;;24.05;16.10;;;;;;;10.76;79.45;93341.47;4218087;28;20241;-54
2022/11/17 02:47:31;;;;;;;26.60;16.60;;;;;;;10.78;79.53;93340.28;4217792;28;20044;-50
2022/11/17 02:49:38;;;;;;;22.73;15.20;;;;;;;10.82;79.55;93338.09;4223077;28;20130;-53
2022/11/17 02:51:42;;;;;;;22.52;16.40;;;;;;;10.76;79.08;93337.03;4217819;28;20130;-53
2022/11/17 02:53:43;;;;;;;22.50;16.08;;;;;;;10.75;79.51;93332.00;4213197;28;20128;-52
2022/11/17 02:55:50;;;;;;;23.77;16.65;;;;;;;10.78;79.45;93329.00;4213207;28;20146;-53
2022/11/17 02:57:52;;;;;;;24.00;15.98;;;;;;;10.79;79.70;93331.41;4227050;28;20475;-54
2022/11/17 02:59:54;;;;;;;22.13;15.23;;;;;;;10.82;79.53;93340.72;4227004;28;20043;-54
2022/11/17 03:02:06;;;;;;;28.50;16.17;;;;;;;10.91;79.44;93343.97;4226697;28;20079;-55
2022/11/17 03:04:31;;;;;;;22.75;15.63;;;;;;;10.90;79.11;93347.59;4214392;28;20063;-50
2022/11/17 03:06:44;;;;;;;23.40;16.65;;;;;;;10.94;78.87;93347.00;4205922;28;20082;-54
2022/11/17 03:09:07;;;;;;;22.85;15.10;;;;;;;10.94;78.69;93339.13;4218806;28;20565;-50
2022/11/17 03:11:09;;;;;;;22.35;15.25;;;;;;;10.77;79.07;93327.38;4213583;28;20494;-51
2022/11/17 03:13:17;;;;;;;23.20;15.68;;;;;;;10.58;80.39;93341.97;4225366;28;20047;-54
2022/11/17 03:15:31;;;;;;;21.13;14.30;;;;;;;10.36;80.84;93326.31;4227372;28;20130;-50
2022/11/17 03:18:00;;;;;;;23.98;15.30;;;;;;;10.25;81.81;93337.28;4208697;28;20135;-51
2022/11/17 03:20:13;;;;;;;23.80;15.20;;;;;;;10.37;81.71;93350.72;4225613;28;20893;-52
2022/11/17 03:22:55;;;;;;;23.92;15.13;;;;;;;10.45;81.54;93329.59;4222947;28;20500;-50
2022/11/17 03:25:01;;;;;;;21.80;14.57;;;;;;;10.47;80.95;93327.59;4195547;28;20044;-53
2022/11/17 03:27:12;;;;;;;22.48;14.57;;;;;;;10.43;80.95;93345.50;4211593;28;20453;-52
2022/11/17 03:29:17;;;;;;;19.15;13.43;;;;;;;10.50;81.35;93357.84;4213842;28;20130;-51
2022/11/17 03:31:19;;;;;;;22.90;14.27;;;;;;;10.45;80.64;93329.59;4225950;28;20083;-54
2022/11/17 03:33:22;;;;;;;22.25;14.10;;;;;;;10.11;82.06;93331.16;4225406;28;20047;-53
2022/11/17 03:35:27;;;;;;;22.17;13.25;;;;;;;10.16;82.63;93354.13;4218536;28;20143;-52
2022/11/17 03:37:30;;;;;;;21.77;14.25;;;;;;;10.29;82.80;93361.28;4217012;28;20577;-51
2022/11/17 03:39:35;;;;;;;21.02;15.40;;;;;;;10.39;82.10;93356.53;4211106;28;20052;-52
2022/11/17 03:41:41;;;;;;;20.85;13.68;;;;;;;10.45;81.68;93367.06;4212836;28;20044;-54
2022/11/17 03:43:44;;;;;;;22.58;14.40;;;;;;;10.54;81.64;93354.66;4221528;28;20051;-52
2022/11/17 03:45:51;;;;;;;23.52;14.32;;;;;;;10.62;81.29;93356.28;4220859;28;20051;-50
2022/11/17 03:48:02;;;;;;;23.95;14.43;;;;;;;10.55;80.95;93363.31;4208318;28;20071;-53
2022/11/17 03:50:18;;;;;;;22.08;14.80;;;;;;;10.22;81.64;93343.72;4221768;28;20101;-54
2022/11/17 03:52:20;;;;;;;21.75;14.55;;;;;;;10.09;82.71;93346.22;4214046;28;20075;-54
2022/11/17 03:54:22;;;;;;;25.92;16.65;;;;;;;10.10;82.92;93352.28;4215209;28;20131;-53
2022/11/17 03:56:48;;;;;;;30.08;22.23;;;;;;;10.21;83.62;93336.84;4208598;28;20083;-59
2022/11/17 03:59:00;;;;;;;25.35;16.58;;;;;;;10.34;83.32;93337.97;4222933;28;20497;-53
2022/11/17 04:01:04;;;;;;;25.20;15.43;;;;;;;10.45;83.15;93330.44;4216103;28;20466;-55
2022/11/17 04:03:06;;;;;;;26.98;16.85;;;;;;;10.51;82.62;93328.03;4217810;28;20101;-51
2022/11/17 04:05:08;;;;;;;27.10;18.83;;;;;;;10.55;82.85;93340.53;4218548;28;20131;-52
2022/11/17 04:07:10;;;;;;;25.87;15.90;;;;;;;10.61;82.68;93338.97;4212247;28;20052;-52
2022/11/17 04:09:12;;;;;;;28.50;16.40;;;;;;;10.66;82.13;93336.56;4225911;28;20047;-51
2022/11/17 04:15:57;;;;;;;29.70;22.35;;;;;;;10.85;81.24;93312.28;4229739;28;20162;-50
2022/11/17 04:17:59;;;;;;;33.15;20.60;;;;;;;10.84;81.11;93308.06;4229659;28;20139;-52
2022/11/17 04:20:01;;;;;;;27.77;17.45;;;;;;;10.74;81.26;93317.28;4229086;28;20520;-55
2022/11/17 04:22:03;;;;;;;26.33;17.45;;;;;;;10.75;81.60;93324.13;4227704;28;20757;-53
2022/11/17 04:24:05;;;;;;;24.75;16.48;;;;;;;10.77;81.61;93314.28;4222519;28;20458;-53
2022/11/17 04:28:38;;;;;;;27.98;18.77;;;;;;;10.81;81.53;93318.13;4216448;28;20050;-53
2022/11/17 04:30:40;;;;;;;31.20;21.05;;;;;;;10.87;81.74;93312.09;4229691;28;20077;-53
2022/11/17 04:32:41;;;;;;;28.95;19.85;;;;;;;10.90;81.42;93301.22;4229294;28;20523;-53
2022/11/17 04:34:43;;;;;;;26.77;17.88;;;;;;;10.92;81.10;93306.28;4228848;28;20454;-52
2022/11/17 04:36:45;;;;;;;31.85;21.20;;;;;;;10.95;80.97;93314.56;4228016;28;20082;-53
2022/11/17 04:38:52;;;;;;;30.15;20.63;;;;;;;10.97;80.91;93311.72;4221824;28;20210;-51
2022/11/17 04:43:23;;;;;;;29.65;19.58;;;;;;;10.93;81.33;93295.63;4222971;28;20058;-50
2022/11/17 04:45:25;;;;;;;31.65;19.02;;;;;;;10.96;81.00;93308.31;4226079;28;20174;-53
2022/11/17 04:47:26;;;;;;;21.67;15.68;;;;;;;10.98;81.12;93300.25;4218512;28;20138;-52
2022/11/17 04:49:30;;;;;;;27.40;15.88;;;;;;;10.81;80.88;93291.94;4229446;28;20098;-52
2022/11/17 04:51:33;;;;;;;21.73;14.07;;;;;;;10.71;81.38;93291.47;4228697;28;20052;-54
2022/11/17 04:53:35;;;;;;;20.30;13.85;;;;;;;10.70;81.50;93290.66;4228274;28;20139;-52
2022/11/17 04:55:37;;;;;;;23.20;15.75;;;;;;;10.74;81.98;93285.84;4229343;28;20051;-52
2022/11/17 04:57:39;;;;;;;23.35;14.98;;;;;;;10.77;82.02;93288.06;4214890;28;20067;-56
2022/11/17 04:59:41;;;;;;;23.55;14.57;;;;;;;10.70;81.78;93290.66;4227882;28;20067;-52
2022/11/17 05:01:43;;;;;;;21.58;14.88;;;;;;;10.74;81.94;93288.47;4219522;28;20046;-53
2022/11/17 05:03:50;;;;;;;18.63;13.20;;;;;;;10.57;81.94;93280.94;4223160;28;20040;-53
2022/11/17 05:05:52;;;;;;;21.83;14.68;;;;;;;10.62;82.44;93277.72;4226155;28;20529;-53
2022/11/17 05:07:53;;;;;;;22.85;15.35;;;;;;;10.68;82.49;93281.38;4227033;28;20175;-53
2022/11/17 05:09:55;;;;;;;21.25;14.07;;;;;;;10.60;82.81;93275.31;4228143;28;20071;-55
2022/11/17 05:14:19;;;;;;;20.63;14.75;;;;;;;10.50;83.62;93276.69;4218945;28;20048;-54
2022/11/17 05:18:42;;;;;;;24.20;14.88;;;;;;;9.91;85.93;93267.38;4228124;28;20082;-56
2022/11/17 05:20:44;;;;;;;21.70;14.85;;;;;;;9.93;86.49;93268.00;4229065;28;20134;-55
2022/11/17 05:25:08;;;;;;;23.83;15.93;;;;;;;10.24;86.17;93267.63;4225854;28;20075;-54
2022/11/17 05:27:09;;;;;;;21.35;15.45;;;;;;;10.13;85.41;93265.53;4226446;28;20082;-51
2022/11/17 05:29:13;;;;;;;25.42;16.25;;;;;;;9.77;86.04;93251.59;4226308;28;20044;-52
2022/11/17 05:31:15;;;;;;;24.35;15.93;;;;;;;9.67;87.56;93261.56;4215967;28;20054;-52
2022/11/17 05:33:17;;;;;;;26.45;16.08;;;;;;;9.81;87.87;93263.31;4226242;28;20143;-49
2022/11/17 05:35:19;;;;;;;22.00;15.70;;;;;;;9.71;87.35;93249.75;4226514;28;20051;-53
2022/11/17 05:37:20;;;;;;;29.45;15.73;;;;;;;9.40;88.73;93242.25;4226615;28;20493;-51
2022/11/17 05:39:22;;;;;;;25.05;15.75;;;;;;;9.50;89.53;93268.06;4228179;28;20477;-54
2022/11/17 05:41:24;;;;;;;26.50;17.27;;;;;;;9.66;88.90;93291.34;4222088;28;20116;-52
2022/11/17 05:43:26;;;;;;;21.60;15.93;;;;;;;9.78;88.63;93270.72;4227360;28;20058;-53
2022/11/17 05:45:28;;;;;;;25.00;15.35;;;;;;;9.72;87.06;93261.00;4226003;28;20416;-54
2022/11/17 05:47:29;;;;;;;23.52;15.00;;;;;;;9.63;87.70;93274.19;4224476;28;20054;-54
2022/11/17 05:49:31;;;;;;;24.48;15.40;;;;;;;9.71;88.22;93281.13;4214928;28;20071;-55
2022/11/17 05:51:33;;;;;;;20.83;14.60;;;;;;;9.87;87.85;93279.22;4221154;28;20133;-52
2022/11/17 05:53:34;;;;;;;23.13;16.15;;;;;;;10.06;87.64;93275.94;4224569;28;20512;-56
2022/11/17 05:55:36;;;;;;;26.17;18.65;;;;;;;10.20;87.36;93287.34;4228303;28;20051;-53
2022/11/17 05:57:38;;;;;;;21.48;14.75;;;;;;;9.94;85.91;93283.53;4227753;28;20126;-50
2022/11/17 05:59:43;;;;;;;22.40;15.13;;;;;;;10.08;86.16;93291.47;4228362;28;20079;-52
2022/11/17 06:01:56;;;;;;;22.48;14.70;;;;;;;10.01;85.57;93276.53;4225572;28;20110;-52
2022/11/17 06:04:01;;;;;;;20.38;13.70;;;;;;;9.61;87.03;93257.09;4225609;28;20086;-55
2022/11/17 06:06:03;;;;;;;22.10;14.32;;;;;;;9.50;87.89;93274.09;4225726;28;20051;-55
2022/11/17 06:08:05;;;;;;;22.02;14.30;;;;;;;9.67;88.31;93273.84;4224024;28;20050;-54
2022/11/17 06:10:07;;;;;;;23.98;16.13;;;;;;;9.83;88.53;93274.38;4225217;28;20138;-54
2022/11/17 06:12:10;;;;;;;24.15;15.50;;;;;;;9.60;88.14;93266.75;4224566;28;20044;-50
2022/11/17 06:14:12;;;;;;;24.23;14.20;;;;;;;9.62;88.65;93288.28;4227913;28;20079;-53
2022/11/17 06:16:17;;;;;;;20.08;12.93;;;;;;;9.67;89.04;93294.75;4228119;28;20089;-53
2022/11/17 06:18:19;;;;;;;19.83;13.82;;;;;;;9.74;89.03;93296.41;4226044;28;20086;-55
2022/11/17 06:20:24;;;;;;;20.38;14.35;;;;;;;9.67;89.33;93289.53;4219057;28;20585;-52
2022/11/17 06:22:26;;;;;;;21.30;14.65;;;;;;;9.63;88.72;93304.78;4225706;28;20159;-56
2022/11/17 06:24:28;;;;;;;24.63;14.93;;;;;;;9.64;88.54;93306.41;4222080;28;20173;-53
2022/11/17 06:26:29;;;;;;;20.83;13.80;;;;;;;9.59;88.76;93324.44;4227283;28;20385;-54
2022/11/17 06:28:33;;;;;;;22.20;14.65;;;;;;;9.74;89.35;93337.47;4217286;28;20052;-51
2022/11/17 06:30:35;;;;;;;20.15;13.57;;;;;;;9.78;88.58;93346.56;4225466;28;20104;-55
2022/11/17 06:32:41;;;;;;;19.20;13.75;;;;;;;9.91;87.84;93351.09;4226001;28;20615;-55
2022/11/17 06:34:45;;;;;;;20.65;13.77;;;;;;;9.89;87.35;93366.16;4226448;28;20117;-51
2022/11/17 06:36:55;;;;;;;24.02;13.75;;;;;;;9.73;88.60;93373.28;4216173;28;20170;-53
2022/11/17 06:38:57;;;;;;;20.15;13.60;;;;;;;9.72;88.97;93383.91;4223911;28;20051;-52
2022/11/17 06:40:59;;;;;;;26.13;13.82;;;;;;;9.80;88.86;93389.81;4227825;28;20044;-56
2022/11/17 06:43:10;;;;;;;21.27;14.55;;;;;;;9.92;88.66;93397.19;4227372;28;20358;-53
2022/11/17 06:45:11;;;;;;;21.67;14.10;;;;;;;9.76;88.84;93401.66;4214391;28;20094;-54
2022/11/17 06:47:13;;;;;;;20.75;14.85;;;;;;;9.82;89.46;93400.13;4227165;28;20083;-54
2022/11/17 06:49:15;;;;;;;20.73;12.65;;;;;;;9.81;89.85;93417.63;4227124;28;20087;-53
2022/11/17 06:51:16;;;;;;;18.92;13.43;;;;;;;9.87;89.71;93399.56;4226918;28;20047;-55
2022/11/17 06:53:18;;;;;;;19.90;12.98;;;;;;;9.98;89.47;93430.44;4221732;28;20480;-55
2022/11/17 06:55:20;;;;;;;20.80;13.68;;;;;;;10.11;89.75;93464.59;4219690;28;20056;-55
2022/11/17 06:57:21;;;;;;;22.20;15.93;;;;;;;10.22;89.21;93473.78;4227257;28;20090;-55
2022/11/17 06:59:23;;;;;;;23.42;15.65;;;;;;;10.23;88.12;93483.22;4227031;28;20043;-55
2022/11/17 07:01:25;;;;;;;19.77;14.43;;;;;;;10.30;87.49;93478.09;4218272;28;20051;-55
2022/11/17 07:03:26;;;;;;;20.48;13.65;;;;;;;10.32;87.19;93471.66;4217167;28;20468;-55
2022/11/17 07:05:30;;;;;;;15.18;11.85;;;;;;;10.43;87.02;93457.25;4223398;28;20078;-55
2022/11/17 07:07:32;;;;;;;8.32;5.95;;;;;;;10.55;85.58;93470.66;4212507;28;20051;-54
2022/11/17 07:09:34;;;;;;;7.47;5.43;;;;;;;10.67;84.71;93456.06;4226971;28;20152;-54
2022/11/17 07:11:35;;;;;;;7.93;4.93;;;;;;;10.74;82.66;93446.44;4223322;28;20117;-50
2022/11/17 07:13:37;;;;;;;4.53;3.15;;;;;;;10.76;82.07;93447.06;4224355;28;20058;-55
2022/11/17 07:15:39;;;;;;;4.63;3.33;;;;;;;10.90;81.62;93445.31;4227355;28;20109;-54
2022/11/17 07:17:41;;;;;;;4.85;3.70;;;;;;;10.96;81.20;93428.84;4221741;28;20089;-52
2022/11/17 07:19:43;;;;;;;6.15;3.92;;;;;;;11.05;81.10;93409.34;4225187;28;20075;-52
2022/11/17 07:21:44;;;;;;;4.93;3.35;;;;;;;11.10;80.65;93389.59;4225333;28;20540;-51
2022/11/17 07:23:46;;;;;;;4.55;3.45;;;;;;;11.16;80.32;93376.53;4226706;28;20039;-52
2022/11/17 07:25:51;;;;;;;5.05;2.95;;;;;;;11.16;78.46;93366.03;4226954;28;20047;-53
2022/11/17 07:27:58;;;;;;;3.85;2.55;;;;;;;11.20;78.24;93350.75;4218643;28;20080;-54
2022/11/17 07:29:59;;;;;;;4.68;2.42;;;;;;;11.20;77.71;93322.72;4226795;28;20054;-54
2022/11/17 07:32:01;;;;;;;4.07;2.40;;;;;;;11.26;77.00;93290.47;4226956;28;20112;-54
2022/11/17 07:34:03;;;;;;;3.53;1.95;;;;;;;11.25;76.25;93290.69;4230166;28;20136;-54
2022/11/17 07:36:06;;;;;;;3.25;1.65;;;;;;;11.28;74.77;93282.41;4230267;28;20054;-54
2022/11/17 07:38:08;;;;;;;2.35;1.20;;;;;;;11.27;73.61;93292.09;4216811;27;20056;-53
2022/11/17 07:40:10;;;;;;;2.10;1.10;;;;;;;11.39;71.85;93302.00;4228291;28;20059;-53
2022/11/17 07:42:11;;;;;;;2.08;1.10;;;;;;;11.58;71.00;93334.53;4217222;28;20052;-54
2022/11/17 07:44:13;;;;;;;1.67;0.90;;;;;;;11.74;69.41;93307.91;4224257;28;20101;-49
2022/11/17 07:46:15;;;;;;;0.88;0.60;;;;;;;11.77;69.09;93289.16;4217859;28;20052;-50
2022/11/17 07:48:16;;;;;;;1.48;0.60;;;;;;;11.82;69.33;93335.78;4215677;28;20052;-53
2022/11/17 07:50:18;;;;;;;1.48;0.50;;;;;;;11.88;68.27;93293.84;4230255;28;20048;-52
2022/11/17 07:52:20;;;;;;;1.25;0.68;;;;;;;11.98;69.18;93271.63;4228866;28;20047;-52
2022/11/17 07:54:22;;;;;;;1.23;0.70;;;;;;;12.07;68.43;93270.44;4230049;28;20055;-54
2022/11/17 07:56:24;;;;;;;1.70;0.80;;;;;;;12.09;68.38;93302.53;4230205;28;20476;-54
2022/11/17 07:58:25;;;;;;;1.30;0.80;;;;;;;12.13;68.21;93295.88;4230202;28;20460;-52
2022/11/17 08:00:28;;;;;;;3.67;0.98;;;;;;;12.13;68.62;93292.41;4225436;28;20071;-52
2022/11/17 08:02:30;;;;;;;1.50;0.90;;;;;;;12.18;67.97;93318.88;4215524;28;20048;-56
2022/11/17 08:04:32;;;;;;;1.05;0.60;;;;;;;12.31;66.06;93311.00;4227917;28;20039;-53
2022/11/17 08:06:35;;;;;;;1.80;0.70;;;;;;;12.57;65.80;93317.22;4228986;28;20563;-54
2022/11/17 08:08:37;;;;;;;1.92;0.70;;;;;;;12.81;65.35;93319.19;4215799;28;20121;-53
2022/11/17 08:10:39;;;;;;;1.13;0.70;;;;;;;13.05;64.88;93328.19;4228344;28;20082;-54
2022/11/17 08:12:41;;;;;;;1.10;0.70;;;;;;;13.11;64.10;93334.47;4228897;28;20512;-53
2022/11/17 08:14:43;;;;;;;1.33;0.70;;;;;;;13.17;64.58;93341.53;4229237;28;20060;-51
2022/11/17 08:16:45;;;;;;;1.33;0.80;;;;;;;13.21;65.17;93353.25;4228758;28;20052;-55
2022/11/17 08:18:47;;;;;;;1.58;0.75;;;;;;;13.06;65.29;93356.13;4229038;28;20050;-55
2022/11/17 08:21:01;;;;;;;2.60;0.90;;;;;;;12.97;65.46;93359.16;4222257;28;20052;-55
2022/11/17 08:23:02;;;;;;;2.50;0.90;;;;;;;12.90;66.02;93354.72;4223574;28;20048;-52
2022/11/17 08:25:05;;;;;;;3.60;0.80;;;;;;;12.85;66.34;93353.75;4229890;28;20051;-55
2022/11/17 08:27:06;;;;;;;1.58;0.70;;;;;;;12.84;64.63;93365.25;4228479;28;20474;-52
2022/11/17 08:29:08;;;;;;;1.60;0.80;;;;;;;12.95;64.19;93369.09;4212969;28;20107;-54
2022/11/17 08:31:10;;;;;;;1.65;0.90;;;;;;;13.15;64.39;93387.44;4213189;28;20079;-52
2022/11/17 08:33:11;;;;;;;2.03;0.90;;;;;;;13.38;64.34;93379.91;4224399;28;20508;-51
2022/11/17 08:35:13;;;;;;;1.60;0.85;;;;;;;13.58;63.67;93377.19;4227648;28;20051;-54
2022/11/17 08:37:15;;;;;;;1.73;0.90;;;;;;;13.65;62.55;93375.34;4216696;28;20063;-51
2022/11/17 08:39:17;;;;;;;1.02;0.70;;;;;;;13.66;61.83;93382.22;4220733;28;20200;-53
2022/11/17 08:41:20;;;;;;;2.05;1.00;;;;;;;13.90;62.62;93370.16;4212911;28;20438;-52
2022/11/17 08:43:22;;;;;;;1.10;0.63;;;;;;;14.10;61.52;93380.53;4227645;28;20075;-52
2022/11/17 08:45:24;;;;;;;1.20;0.60;;;;;;;14.10;59.78;93375.28;4229046;28;20146;-51
2022/11/17 08:47:26;;;;;;;1.05;0.70;;;;;;;14.19;59.37;93386.34;4228970;28;20491;-51
2022/11/17 08:49:28;;;;;;;1.05;0.73;;;;;;;14.24;59.29;93394.44;4227851;28;20043;-54
2022/11/17 08:51:30;;;;;;;1.20;0.60;;;;;;;14.32;58.92;93391.53;4228796;28;20047;-51
2022/11/17 08:53:31;;;;;;;2.05;1.08;;;;;;;14.45;58.54;93395.91;4227720;28;20075;-52
2022/11/17 08:55:36;;;;;;;2.80;1.05;;;;;;;14.64;58.18;93386.25;4228938;28;20062;-54
2022/11/17 08:57:42;;;;;;;2.15;1.00;;;;;;;14.74;56.98;93389.22;4229306;28;20048;-56
2022/11/17 08:59:44;;;;;;;1.52;0.80;;;;;;;14.69;56.76;93377.69;4226878;28;20489;-51
2022/11/17 09:01:46;;;;;;;2.45;0.70;;;;;;;14.74;57.06;93385.78;4220992;28;20062;-53
2022/11/17 09:03:47;;;;;;;2.17;1.00;;;;;;;14.59;57.04;93380.84;4223877;28;20600;-50
2022/11/17 09:05:49;;;;;;;1.60;1.10;;;;;;;14.56;57.04;93378.59;4215990;28;20044;-55
2022/11/17 09:07:51;;;;;;;3.08;1.00;;;;;;;14.48;57.19;93377.03;4225688;28;20131;-53
2022/11/17 09:09:53;;;;;;;2.10;1.10;;;;;;;14.49;57.41;93386.53;4229081;28;20047;-53
2022/11/17 09:11:55;;;;;;;1.65;1.10;;;;;;;14.63;56.97;93403.09;4229194;28;20449;-51
2022/11/17 09:13:56;;;;;;;2.35;1.05;;;;;;;14.67;56.56;93390.28;4227076;28;20514;-55
2022/11/17 09:16:02;;;;;;;1.45;0.82;;;;;;;14.70;56.65;93379.31;4227587;28;20084;-53
2022/11/17 09:18:04;;;;;;;1.90;1.00;;;;;;;14.71;56.69;93371.19;4228051;28;20047;-52
2022/11/17 09:20:06;;;;;;;1.35;0.77;;;;;;;14.50;56.31;93369.72;4227876;28;20052;-51
2022/11/17 09:22:08;;;;;;;1.00;0.70;;;;;;;14.44;56.30;93377.69;4224052;28;20370;-53
2022/11/17 09:24:10;;;;;;;1.90;0.80;;;;;;;14.34;56.75;93381.59;4227662;28;20463;-50
2022/11/17 09:26:13;;;;;;;2.53;0.93;;;;;;;14.27;57.00;93377.41;4227710;28;20055;-54
2022/11/17 09:28:15;;;;;;;1.23;0.73;;;;;;;14.34;56.63;93375.50;4228119;28;20050;-55
2022/11/17 09:30:20;;;;;;;1.42;0.82;;;;;;;14.29;56.77;93363.00;4224946;28;20047;-54
2022/11/17 09:32:22;;;;;;;2.35;1.20;;;;;;;14.29;57.54;93370.88;4227623;28;20090;-55
2022/11/17 09:34:24;;;;;;;2.28;1.00;;;;;;;14.22;57.44;93379.84;4228336;28;20059;-55
2022/11/17 09:36:26;;;;;;;2.33;1.08;;;;;;;14.30;57.60;93383.06;4228858;28;20086;-57
2022/11/17 09:38:27;;;;;;;1.23;0.75;;;;;;;14.29;57.37;93378.00;4214212;28;20559;-55
2022/11/17 09:40:29;;;;;;;3.33;1.10;;;;;;;14.22;57.23;93377.22;4228481;28;20054;-52
2022/11/17 09:42:39;;;;;;;2.28;0.90;;;;;;;14.20;57.50;93371.38;4229024;28;20047;-52
2022/11/17 09:44:47;;;;;;;1.77;0.70;;;;;;;14.18;56.99;93371.59;4215776;28;20121;-52
2022/11/17 09:47:17;;;;;;;3.80;1.55;;;;;;;14.14;57.58;93376.47;4213822;28;20699;-54
2022/11/17 09:49:40;;;;;;;1.65;0.90;;;;;;;14.26;57.59;93381.03;4228581;28;20059;-53
2022/11/17 09:51:43;;;;;;;3.35;1.40;;;;;;;14.36;57.45;93375.31;4214828;28;20051;-55
2022/11/17 09:53:48;;;;;;;;;;;;;;;14.42;57.87;93377.88;4218971;28;20060;-57
2022/11/17 09:56:00;;;;;;;2.45;1.20;;;;;;;14.41;58.18;93380.72;4221636;28;20591;-51
2022/11/17 09:58:28;;;;;;;2.42;1.30;;;;;;;14.39;57.80;93369.59;4212893;28;20052;-52
2022/11/17 10:00:31;;;;;;;3.47;1.25;;;;;;;14.34;58.19;93384.22;4220831;28;20530;-51
2022/11/17 10:02:33;;;;;;;2.30;1.10;;;;;;;14.39;58.04;93372.22;4211239;28;20105;-56
2022/11/17 10:04:34;;;;;;;2.22;1.30;;;;;;;14.36;58.26;93368.22;4212395;28;20397;-53